Time;durP1;ratioP1;P1;durP2;ratioP2;P2;SDS_P1;SDS_P2;PMS_P1;PMS_P2;Temp;Humidity;BMP_temperature;BMP_pressure;BME280_temperature;BME280_humidity;BME280_pressure;Samples;Min_cycle;Max_cycle;Signal;HPM_P1;HPM_P2
2022/08/17 00:00:22;;;;;;;5.33;4.80;;;20.00;99.90;;;;;;5045628;28;20430;-76
2022/08/17 00:03:01;;;;;;;7.30;4.40;;;20.00;99.90;;;;;;5050315;28;20473;-76
2022/08/17 00:05:29;;;;;;;6.47;5.00;;;19.90;99.90;;;;;;5041666;28;20911;-76
2022/08/17 00:07:55;;;;;;;7.53;4.63;;;19.90;99.90;;;;;;5033781;28;20887;-76
2022/08/17 00:10:22;;;;;;;5.40;4.67;;;19.90;99.90;;;;;;5048461;28;20806;-76
2022/08/17 00:12:51;;;;;;;6.37;4.90;;;19.90;99.90;;;;;;5029541;28;20994;-76
2022/08/17 00:15:19;;;;;;;6.03;4.87;;;19.90;99.90;;;;;;5043202;28;20515;-76
2022/08/17 00:17:48;;;;;;;9.77;5.00;;;19.90;99.90;;;;;;5041017;28;20458;-76
2022/08/17 00:20:15;;;;;;;9.10;5.40;;;19.80;99.90;;;;;;5035569;28;20519;-76
2022/08/17 00:22:42;;;;;;;6.07;5.43;;;19.90;99.90;;;;;;5035516;28;21052;-76
2022/08/17 00:25:14;;;;;;;9.53;5.50;;;19.90;99.90;;;;;;5042792;28;20950;-76
2022/08/17 00:27:41;;;;;;;6.40;4.55;;;19.90;99.90;;;;;;5034384;28;20506;-76
2022/08/17 00:30:12;;;;;;;6.20;4.87;;;19.80;99.90;;;;;;5033753;28;20203;-76
2022/08/17 00:32:40;;;;;;;10.47;5.40;;;19.80;99.90;;;;;;5037883;28;20495;-76
2022/08/17 00:35:10;;;;;;;6.00;5.40;;;19.80;99.90;;;;;;5041559;28;20462;-76
2022/08/17 00:37:37;;;;;;;12.47;5.53;;;19.80;99.90;;;;;;5030486;28;20950;-76
2022/08/17 00:40:05;;;;;;;5.73;4.87;;;19.80;99.90;;;;;;5032515;28;20484;-76
2022/08/17 00:42:32;;;;;;;6.70;5.10;;;19.80;99.90;;;;;;5032990;28;20520;-76
2022/08/17 00:44:59;;;;;;;5.93;5.00;;;19.80;99.90;;;;;;5047021;28;20463;-76
2022/08/17 00:47:27;;;;;;;15.93;5.30;;;19.70;99.90;;;;;;5051611;28;20453;-76
2022/08/17 00:49:53;;;;;;;6.70;6.00;;;19.80;99.90;;;;;;5028841;28;20501;-76
2022/08/17 00:52:24;;;;;;;5.97;4.50;;;19.80;99.90;;;;;;5033384;28;20492;-76
2022/08/17 00:54:53;;;;;;;8.00;5.90;;;19.70;99.90;;;;;;5038983;28;20449;-76
2022/08/17 00:57:24;;;;;;;8.33;5.00;;;19.70;99.90;;;;;;5048624;28;20461;-76
2022/08/17 00:59:54;;;;;;;5.97;5.30;;;19.70;99.90;;;;;;5037117;28;20462;-76
2022/08/17 01:02:21;;;;;;;8.23;5.00;;;19.70;99.90;;;;;;5031737;28;21027;-76
2022/08/17 01:04:52;;;;;;;6.67;5.13;;;19.70;99.90;;;;;;5032365;28;20195;-76
2022/08/17 01:07:22;;;;;;;7.30;5.67;;;19.70;99.90;;;;;;5032279;28;20457;-76
2022/08/17 01:09:50;;;;;;;8.00;5.20;;;19.60;99.90;;;;;;5032475;28;20482;-76
2022/08/17 01:12:17;;;;;;;9.10;5.70;;;19.70;99.90;;;;;;5040717;28;20485;-76
2022/08/17 01:14:44;;;;;;;6.57;5.00;;;19.70;99.90;;;;;;5045205;28;20512;-76
2022/08/17 01:17:11;;;;;;;7.03;5.40;;;19.60;99.90;;;;;;5031931;28;20465;-76
2022/08/17 01:19:40;;;;;;;5.60;5.00;;;19.70;99.90;;;;;;5044338;28;20875;-76
2022/08/17 01:22:20;;;;;;;9.20;6.10;;;19.60;99.90;;;;;;5046463;28;20476;-76
2022/08/17 01:24:52;;;;;;;7.80;5.70;;;19.60;99.90;;;;;;5040052;28;20448;-76
2022/08/17 01:27:19;;;;;;;12.07;6.10;;;19.50;99.90;;;;;;5045206;28;20456;-77
2022/08/17 01:29:50;;;;;;;12.90;5.57;;;19.50;99.90;;;;;;5047115;28;20454;-77
2022/08/17 01:32:18;;;;;;;8.20;6.10;;;19.30;99.90;;;;;;5050235;28;20512;-76
2022/08/17 01:34:45;;;;;;;9.03;5.63;;;19.20;99.90;;;;;;5049164;28;20432;-76
2022/08/17 01:37:13;;;;;;;6.50;5.87;;;19.00;99.90;;;;;;5041967;28;20524;-76
2022/08/17 01:39:45;;;;;;;7.27;5.67;;;18.90;99.90;;;;;;5039545;28;20461;-76
2022/08/17 01:42:18;;;;;;;7.73;6.20;;;18.90;99.90;;;;;;5039607;28;20473;-76
2022/08/17 01:44:45;;;;;;;11.50;8.07;;;18.90;99.90;;;;;;5035056;28;21007;-76
2022/08/17 01:47:11;;;;;;;7.77;6.97;;;18.80;99.90;;;;;;5050116;28;20553;-76
2022/08/17 01:49:38;;;;;;;11.20;7.53;;;18.80;99.90;;;;;;5050403;28;20457;-76
2022/08/17 01:52:08;;;;;;;13.88;7.70;;;18.80;99.90;;;;;;5036678;28;20911;-76
2022/08/17 01:54:36;;;;;;;11.25;7.35;;;18.70;99.90;;;;;;5042384;28;20282;-76
2022/08/17 01:57:05;;;;;;;8.37;7.10;;;18.80;99.90;;;;;;5031774;28;20203;-76
2022/08/17 01:59:32;;;;;;;10.43;6.50;;;18.80;99.90;;;;;;5037901;28;20468;-76
2022/08/17 02:01:59;;;;;;;9.20;7.07;;;18.70;99.90;;;;;;5048061;28;20447;-76
2022/08/17 02:04:26;;;;;;;9.48;5.80;;;18.70;99.90;;;;;;5033992;28;20490;-76
2022/08/17 02:06:52;;;;;;;8.97;5.80;;;18.70;99.90;;;;;;5031206;28;20671;-76
2022/08/17 02:09:20;;;;;;;6.90;6.22;;;18.70;99.90;;;;;;5039101;28;20420;-76
2022/08/17 02:11:47;;;;;;;7.50;5.83;;;18.70;99.90;;;;;;5039268;28;20231;-76
2022/08/17 02:14:15;;;;;;;7.93;5.83;;;18.70;99.90;;;;;;5049433;28;20952;-76
2022/08/17 02:16:42;;;;;;;12.53;5.90;;;18.70;99.90;;;;;;5035870;28;20471;-76
2022/08/17 02:19:14;;;;;;;8.55;5.30;;;18.70;99.90;;;;;;5041942;28;20510;-76
2022/08/17 02:21:42;;;;;;;7.90;5.93;;;18.70;99.90;;;;;;5027791;28;20253;-76
2022/08/17 02:24:13;;;;;;;8.73;5.70;;;18.70;99.90;;;;;;5043373;28;20428;-76
2022/08/17 02:26:40;;;;;;;8.43;5.77;;;18.70;99.90;;;;;;5046004;28;20457;-75
2022/08/17 02:29:07;;;;;;;7.93;6.00;;;18.70;99.90;;;;;;5046087;28;20429;-76
2022/08/17 02:31:35;;;;;;;8.97;6.40;;;18.60;99.90;;;;;;5049287;28;20531;-76
2022/08/17 02:34:02;;;;;;;7.93;5.85;;;18.60;99.90;;;;;;5039711;28;20454;-76
2022/08/17 02:36:28;;;;;;;7.67;6.10;;;18.60;99.90;;;;;;5043899;28;20594;-76
2022/08/17 02:38:55;;;;;;;9.37;6.13;;;18.60;99.90;;;;;;5047097;28;20433;-76
2022/08/17 02:41:22;;;;;;;7.60;6.38;;;18.60;99.90;;;;;;5030892;28;20891;-76
2022/08/17 02:43:49;;;;;;;10.70;6.23;;;18.60;99.90;;;;;;5040778;28;20679;-75
2022/08/17 02:46:15;;;;;;;9.68;5.80;;;18.60;99.90;;;;;;5031151;28;20839;-75
2022/08/17 02:48:43;;;;;;;8.53;6.60;;;18.60;99.90;;;;;;5031178;28;20207;-76
2022/08/17 02:51:10;;;;;;;6.60;6.00;;;18.60;99.90;;;;;;5030704;28;20501;-76
2022/08/17 02:53:37;;;;;;;9.70;6.57;;;18.60;99.90;;;;;;5048173;28;20494;-76
2022/08/17 02:56:04;;;;;;;7.60;6.80;;;18.40;99.90;;;;;;5036060;28;20428;-76
2022/08/17 02:58:30;;;;;;;10.60;7.13;;;18.60;99.90;;;;;;5035165;28;20427;-76
2022/08/17 03:00:57;;;;;;;7.90;6.83;;;18.60;99.90;;;;;;5034271;28;20453;-76
2022/08/17 03:03:24;;;;;;;9.87;6.77;;;18.50;99.90;;;;;;5033909;28;20492;-76
2022/08/17 03:05:52;;;;;;;9.70;7.03;;;18.60;99.90;;;;;;5035115;28;20504;-76
2022/08/17 03:08:19;;;;;;;11.82;7.68;;;18.60;99.90;;;;;;5034559;28;20475;-75
2022/08/17 03:10:46;;;;;;;22.90;7.07;;;18.60;99.90;;;;;;5041794;28;20198;-75
2022/08/17 03:13:14;;;;;;;16.30;8.63;;;18.60;99.90;;;;;;5053158;28;20523;-75
2022/08/17 03:15:43;;;;;;;8.53;6.73;;;18.70;99.90;;;;;;5044074;28;20456;-75
2022/08/17 03:18:11;;;;;;;9.53;6.70;;;18.70;99.90;;;;;;5034762;28;20477;-75
2022/08/17 03:20:37;;;;;;;8.30;6.60;;;18.70;99.90;;;;;;5034269;28;20445;-76
2022/08/17 03:23:06;;;;;;;9.17;7.03;;;18.70;99.90;;;;;;5036420;28;20470;-76
2022/08/17 03:25:34;;;;;;;14.27;6.90;;;18.70;99.90;;;;;;5042436;28;20419;-76
2022/08/17 03:28:01;;;;;;;8.20;6.53;;;18.70;99.90;;;;;;5053230;28;20431;-76
2022/08/17 03:30:28;;;;;;;13.67;9.00;;;18.70;99.90;;;;;;5041530;28;20479;-75
2022/08/17 03:32:58;;;;;;;13.53;7.10;;;18.70;99.90;;;;;;5041820;28;20485;-76
2022/08/17 03:35:28;;;;;;;8.03;7.23;;;18.70;99.90;;;;;;5040274;28;20974;-76
2022/08/17 03:37:56;;;;;;;12.77;7.03;;;18.70;99.90;;;;;;5034553;28;20499;-75
2022/08/17 03:40:24;;;;;;;10.03;7.47;;;18.60;99.90;;;;;;5040279;28;20830;-75
2022/08/17 03:42:52;;;;;;;8.57;6.80;;;18.70;99.90;;;;;;5038486;28;20967;-75
2022/08/17 03:56:41;;;;;;;8.45;6.95;;;18.70;99.90;;;;;;5034110;28;20432;-76
2022/08/17 03:56:42;;;;;;;9.20;7.70;;;18.70;99.90;;;;;;5047725;28;20480;-75
2022/08/17 03:59:09;;;;;;;12.23;7.17;;;18.70;99.90;;;;;;5031722;28;20454;-75
2022/08/17 04:01:36;;;;;;;9.87;7.10;;;18.60;99.90;;;;;;5043705;28;20560;-75
2022/08/17 04:04:04;;;;;;;9.20;6.53;;;18.60;99.90;;;;;;5035856;28;20453;-75
2022/08/17 04:06:30;;;;;;;11.80;7.67;;;18.50;99.90;;;;;;5033814;28;20510;-75
2022/08/17 04:08:57;;;;;;;7.43;6.82;;;18.50;99.90;;;;;;5046425;28;20457;-76
2022/08/17 04:11:23;;;;;;;7.50;6.80;;;18.50;99.90;;;;;;5034142;28;20227;-75
2022/08/17 04:13:51;;;;;;;7.63;6.90;;;18.50;99.90;;;;;;5046683;28;20907;-75
2022/08/17 04:16:18;;;;;;;10.45;7.20;;;18.50;99.90;;;;;;5038856;28;20502;-75
2022/08/17 04:18:45;;;;;;;8.53;6.90;;;18.40;99.90;;;;;;5052014;28;20198;-76
2022/08/17 04:21:12;;;;;;;12.97;7.37;;;18.30;99.90;;;;;;5051634;28;20523;-76
2022/08/17 04:23:38;;;;;;;10.40;7.37;;;18.30;99.90;;;;;;5046990;28;20797;-76
2022/08/17 04:26:05;;;;;;;13.43;7.57;;;18.20;99.90;;;;;;5032911;28;20479;-76
2022/08/17 04:28:32;;;;;;;8.40;7.10;;;18.20;99.90;;;;;;5033458;28;20437;-75
2022/08/17 04:31:00;;;;;;;8.40;7.10;;;18.30;99.90;;;;;;5050344;28;21010;-75
2022/08/17 04:33:28;;;;;;;7.87;7.07;;;18.30;99.90;;;;;;5034035;28;20808;-75
2022/08/17 04:35:58;;;;;;;8.77;7.10;;;18.30;99.90;;;;;;5049986;28;20432;-75
2022/08/17 04:38:27;;;;;;;10.80;7.33;;;18.30;99.90;;;;;;5051719;28;20428;-76
2022/08/17 04:43:44;;;;;;;13.43;8.23;;;18.40;99.90;;;;;;5005688;28;21033;-76
2022/08/17 04:46:14;;;;;;;14.33;8.20;;;18.40;99.90;;;;;;5051080;28;20474;-76
2022/08/17 04:48:42;;;;;;;9.10;8.00;;;18.40;99.90;;;;;;5049248;28;20953;-76
2022/08/17 04:51:12;;;;;;;12.73;8.17;;;18.40;99.90;;;;;;5031572;28;20477;-76
2022/08/17 04:53:42;;;;;;;11.93;8.20;;;18.50;99.90;;;;;;5032780;28;20460;-76
2022/08/17 04:56:11;;;;;;;8.40;7.60;;;18.50;99.90;;;;;;5050313;28;21007;-75
2022/08/17 04:58:38;;;;;;;8.80;7.80;;;18.60;99.90;;;;;;5029158;28;20483;-76
2022/08/17 05:01:05;;;;;;;9.77;7.40;;;18.60;99.90;;;;;;5041675;28;20424;-76
2022/08/17 05:03:34;;;;;;;8.47;7.57;;;18.60;99.90;;;;;;5032334;28;20196;-76
2022/08/17 05:06:01;;;;;;;7.57;6.60;;;18.70;99.90;;;;;;5047197;28;20450;-76
2022/08/17 05:08:27;;;;;;;10.87;7.77;;;18.80;99.90;;;;;;5032863;28;20861;-76
2022/08/17 05:10:54;;;;;;;9.83;7.17;;;18.80;99.90;;;;;;5033153;28;20440;-76
2022/08/17 05:13:24;;;;;;;12.07;8.43;;;18.80;99.90;;;;;;5034935;28;20499;-74
2022/08/17 05:15:54;;;;;;;18.67;8.03;;;18.90;99.90;;;;;;5047409;28;20419;-74
2022/08/17 05:18:21;;;;;;;10.37;7.17;;;19.00;99.90;;;;;;5049464;28;20868;-74
2022/08/17 05:20:49;;;;;;;8.30;7.53;;;19.20;99.90;;;;;;5034660;28;20445;-74
2022/08/17 05:23:18;;;;;;;7.85;7.05;;;19.30;99.90;;;;;;5040376;28;20495;-74
2022/08/17 05:25:46;;;;;;;10.57;7.38;;;19.40;99.90;;;;;;5034710;28;20241;-74
2022/08/17 05:28:14;;;;;;;12.60;7.33;;;19.50;99.90;;;;;;5030100;28;20564;-74
2022/08/17 05:30:41;;;;;;;7.90;6.40;;;19.50;99.90;;;;;;5025421;28;20458;-74
2022/08/17 05:33:11;;;;;;;10.60;6.87;;;19.60;99.90;;;;;;5028446;28;20505;-74
2022/08/17 05:35:43;;;;;;;13.13;7.83;;;19.90;99.90;;;;;;5029166;28;20442;-75
2022/08/17 05:38:11;;;;;;;12.40;7.57;;;20.00;99.90;;;;;;5028816;28;20520;-74
2022/08/17 05:40:38;;;;;;;8.60;6.60;;;20.10;99.90;;;;;;5028259;28;20456;-74
2022/08/17 05:43:07;;;;;;;10.15;7.82;;;20.10;99.90;;;;;;5028509;28;20458;-74
2022/08/17 05:45:35;;;;;;;8.00;7.00;;;20.30;99.90;;;;;;5028780;28;20196;-74
2022/08/17 05:48:02;;;;;;;10.47;7.80;;;20.50;99.90;;;;;;5025581;28;20462;-75
2022/08/17 05:50:34;;;;;;;10.80;7.67;;;21.00;99.90;;;;;;5025516;28;20465;-75
2022/08/17 05:53:06;;;;;;;13.83;7.60;;;21.30;99.90;;;;;;5031799;28;20498;-75
2022/08/17 05:55:46;;;;;;;7.60;6.90;;;21.70;99.90;;;;;;5030091;28;20446;-76
2022/08/17 05:58:23;;;;;;;13.25;6.85;;;22.20;99.90;;;;;;5031353;28;20517;-74
2022/08/17 06:01:02;;;;;;;10.17;6.80;;;22.60;99.90;;;;;;5029179;28;20211;-74
2022/08/17 06:03:39;;;;;;;7.00;6.30;;;22.90;99.90;;;;;;5028831;28;20535;-74
2022/08/17 06:06:17;;;;;;;11.37;6.57;;;23.10;99.90;;;;;;5028733;28;20563;-74
2022/08/17 06:08:50;;;;;;;16.33;7.07;;;23.10;99.90;;;;;;5028520;28;20500;-74
2022/08/17 06:11:22;;;;;;;11.73;6.53;;;23.10;99.90;;;;;;5027353;28;20520;-74
2022/08/17 06:14:17;;;;;;;8.90;6.77;;;23.40;99.90;;;;;;5027515;28;20494;-73
2022/08/17 06:16:49;;;;;;;14.37;6.20;;;23.70;99.90;;;;;;5028168;28;20454;-74
2022/08/17 06:19:18;;;;;;;10.10;6.60;;;24.10;99.90;;;;;;5028012;28;20966;-74
2022/08/17 06:21:47;;;;;;;11.50;6.80;;;24.30;99.90;;;;;;5027870;28;20504;-74
2022/08/17 06:24:26;;;;;;;9.53;7.00;;;24.50;99.90;;;;;;5028045;28;20996;-74
2022/08/17 06:26:56;;;;;;;7.27;6.40;;;24.60;99.90;;;;;;5027587;28;21204;-74
2022/08/17 06:29:41;;;;;;;11.13;5.78;;;24.80;99.90;;;;;;5027992;28;20449;-74
2022/08/17 06:32:11;;;;;;;8.47;5.80;;;25.00;99.90;;;;;;5027326;28;20272;-73
2022/08/17 06:34:38;;;;;;;7.73;5.70;;;25.00;99.90;;;;;;5028326;28;21017;-73
2022/08/17 06:37:13;;;;;;;6.90;6.00;;;24.90;99.90;;;;;;5028396;28;20458;-73
2022/08/17 06:39:49;;;;;;;6.53;5.78;;;24.90;99.90;;;;;;5032078;28;20966;-75
2022/08/17 06:42:28;;;;;;;7.77;5.90;;;24.50;99.90;;;;;;5032301;28;20310;-74
2022/08/17 06:45:01;;;;;;;8.03;5.77;;;24.30;99.90;;;;;;5031208;28;20449;-75
2022/08/17 06:47:34;;;;;;;11.57;5.80;;;24.10;99.90;;;;;;5031388;28;20458;-74
2022/08/17 06:50:13;;;;;;;9.17;5.70;;;23.90;99.90;;;;;;5031541;28;20458;-74
2022/08/17 06:52:48;;;;;;;9.03;6.50;;;23.70;99.90;;;;;;5031914;28;20484;-73
2022/08/17 06:55:21;;;;;;;7.13;5.93;;;23.50;99.90;;;;;;5032243;28;20441;-74
2022/08/17 06:57:51;;;;;;;12.50;5.70;;;23.30;99.90;;;;;;5031992;28;20206;-73
2022/08/17 07:00:21;;;;;;;9.43;6.60;;;23.20;99.90;;;;;;5031144;28;20469;-74
2022/08/17 07:02:54;;;;;;;6.47;5.87;;;23.20;99.90;;;;;;5031122;28;20592;-74
2022/08/17 07:05:23;;;;;;;7.17;5.87;;;23.20;99.90;;;;;;5031344;28;21013;-74
2022/08/17 07:08:02;;;;;;;10.17;5.77;;;23.20;99.90;;;;;;5030279;28;20453;-73
2022/08/17 07:10:36;;;;;;;6.60;5.30;;;23.20;99.90;;;;;;5031052;28;20507;-73
2022/08/17 07:13:25;;;;;;;16.17;5.63;;;23.20;99.90;;;;;;5031151;28;20473;-73
2022/08/17 07:15:59;;;;;;;11.43;7.70;;;23.30;99.90;;;;;;5031620;28;20450;-74
2022/08/17 07:18:31;;;;;;;7.27;5.70;;;23.30;99.90;;;;;;5031145;28;20449;-74
2022/08/17 07:21:06;;;;;;;7.17;5.47;;;23.30;99.90;;;;;;5030480;28;21053;-74
2022/08/17 07:23:39;;;;;;;6.83;6.13;;;23.30;99.90;;;;;;5031288;28;20453;-75
2022/08/17 07:26:08;;;;;;;9.32;5.75;;;23.30;99.90;;;;;;5031465;28;20507;-74
2022/08/17 07:28:36;;;;;;;11.13;5.43;;;23.30;99.90;;;;;;5030950;28;20892;-74
2022/08/17 07:31:04;;;;;;;7.93;6.20;;;23.40;99.90;;;;;;5030647;28;20511;-74
2022/08/17 07:33:35;;;;;;;6.60;6.00;;;23.40;99.90;;;;;;5030194;28;20217;-74
2022/08/17 07:36:02;;;;;;;7.67;5.40;;;23.40;99.90;;;;;;5030653;28;20211;-73
2022/08/17 07:38:31;;;;;;;10.10;5.53;;;23.40;99.90;;;;;;5030537;28;20856;-73
2022/08/17 07:41:04;;;;;;;11.73;5.67;;;23.30;99.90;;;;;;5030518;28;20449;-73
2022/08/17 07:43:35;;;;;;;15.07;5.70;;;23.20;99.90;;;;;;5029818;28;20458;-73
2022/08/17 07:49:17;;;;;;;6.70;5.75;;;23.30;99.90;;;;;;5028236;28;20441;-73
2022/08/17 07:51:59;;;;;;;11.00;5.73;;;23.30;99.90;;;;;;5028892;28;20239;-73
2022/08/17 07:54:29;;;;;;;13.15;5.93;;;23.30;99.90;;;;;;5029677;28;20485;-74
2022/08/17 07:56:59;;;;;;;11.03;5.50;;;23.30;99.90;;;;;;5029645;28;20672;-74
2022/08/17 07:59:28;;;;;;;7.80;5.30;;;23.30;99.90;;;;;;5029866;28;20820;-74
2022/08/17 08:02:23;;;;;;;10.02;4.97;;;23.30;99.90;;;;;;5028801;28;21039;-74
2022/08/17 08:05:00;;;;;;;8.43;4.90;;;23.30;99.90;;;;;;5029675;28;20210;-74
2022/08/17 08:07:33;;;;;;;7.70;5.50;;;23.40;99.90;;;;;;5029534;28;20446;-74
2022/08/17 08:10:07;;;;;;;9.33;5.00;;;23.40;99.90;;;;;;5030024;28;20557;-75
2022/08/17 08:12:37;;;;;;;8.93;5.60;;;23.40;99.90;;;;;;5029882;28;20870;-75
2022/08/17 08:15:12;;;;;;;11.83;5.60;;;23.50;99.90;;;;;;5029248;28;20560;-74
2022/08/17 08:17:50;;;;;;;7.00;4.90;;;23.60;99.90;;;;;;5029914;28;20964;-74
2022/08/17 08:20:17;;;;;;;8.03;5.37;;;23.70;99.90;;;;;;5029531;28;20508;-75
2022/08/17 08:22:54;;;;;;;11.00;5.20;;;23.70;99.90;;;;;;5028314;28;20609;-75
2022/08/17 08:25:27;;;;;;;9.27;5.17;;;23.70;99.90;;;;;;5029310;28;20450;-75
2022/08/17 08:28:10;;;;;;;7.60;5.50;;;23.70;99.90;;;;;;5029221;28;20529;-75
2022/08/17 08:30:45;;;;;;;8.67;5.70;;;23.70;99.90;;;;;;5028891;28;20568;-76
2022/08/17 08:33:25;;;;;;;11.17;5.10;;;23.70;99.90;;;;;;5029740;28;20481;-75
2022/08/17 08:35:58;;;;;;;8.00;5.00;;;23.70;99.90;;;;;;5029479;28;20453;-75
2022/08/17 08:38:38;;;;;;;8.73;5.15;;;23.80;99.90;;;;;;5029848;28;20461;-75
2022/08/17 08:41:18;;;;;;;11.30;4.85;;;23.80;99.90;;;;;;5030426;28;20244;-77
2022/08/17 08:43:50;;;;;;;7.23;5.70;;;23.70;99.90;;;;;;5028933;28;20211;-77
2022/08/17 08:46:27;;;;;;;5.70;4.77;;;23.70;99.90;;;;;;5030248;28;20545;-77
2022/08/17 08:49:09;;;;;;;7.20;5.10;;;23.70;99.90;;;;;;5030485;28;20969;-78
2022/08/17 08:51:45;;;;;;;5.77;5.17;;;23.60;99.90;;;;;;5031035;28;20503;-78
2022/08/17 08:54:26;;;;;;;10.47;5.60;;;23.70;99.90;;;;;;5031415;28;20474;-76
2022/08/17 08:56:57;;;;;;;17.20;5.23;;;23.60;99.90;;;;;;5030520;28;21010;-77
2022/08/17 08:59:32;;;;;;;7.27;5.03;;;23.50;99.90;;;;;;5029659;28;20457;-78
2022/08/17 09:02:11;;;;;;;12.30;5.50;;;23.40;99.90;;;;;;5030686;28;21263;-79
2022/08/17 09:05:01;;;;;;;16.45;5.70;;;23.40;99.90;;;;;;5029747;28;20491;-78
2022/08/17 09:07:39;;;;;;;9.80;5.73;;;23.40;99.90;;;;;;5029903;28;20286;-78
2022/08/17 09:10:13;;;;;;;9.87;5.73;;;23.30;99.90;;;;;;5029455;28;20457;-79
2022/08/17 09:12:47;;;;;;;6.23;5.60;;;23.30;99.90;;;;;;5019659;28;20465;-78
2022/08/17 09:15:19;;;;;;;17.03;5.87;;;23.30;99.90;;;;;;5023522;28;20730;-78
2022/08/17 09:17:55;;;;;;;6.40;5.60;;;23.20;99.90;;;;;;5021718;28;20505;-79
2022/08/17 09:20:27;;;;;;;8.93;5.30;;;23.20;99.90;;;;;;5026014;28;21024;-78
2022/08/17 09:22:58;;;;;;;10.63;5.95;;;23.20;99.90;;;;;;5023396;28;20924;-79
2022/08/17 09:25:29;;;;;;;6.50;5.90;;;23.20;99.90;;;;;;5026493;28;20204;-78
2022/08/17 09:27:59;;;;;;;15.43;6.27;;;23.30;99.90;;;;;;5028148;28;20462;-78
2022/08/17 09:30:26;;;;;;;10.73;5.57;;;23.20;99.90;;;;;;5028299;28;20450;-78
2022/08/17 09:32:57;;;;;;;7.10;5.93;;;23.20;99.90;;;;;;5027008;28;20470;-78
2022/08/17 09:35:30;;;;;;;11.07;6.67;;;23.20;99.90;;;;;;5027936;28;20478;-77
2022/08/17 09:38:02;;;;;;;6.87;6.17;;;23.20;99.90;;;;;;5026485;28;20563;-78
2022/08/17 09:40:35;;;;;;;7.80;6.10;;;23.10;99.90;;;;;;5027262;28;20493;-79
2022/08/17 09:43:09;;;;;;;6.97;6.27;;;23.00;99.90;;;;;;5027347;28;20508;-78
2022/08/17 09:45:41;;;;;;;8.00;6.23;;;22.90;99.90;;;;;;5024783;28;20519;-78
2022/08/17 09:48:13;;;;;;;10.20;5.50;;;22.90;99.90;;;;;;5025235;28;21400;-78
2022/08/17 09:50:45;;;;;;;10.23;5.20;;;22.90;99.90;;;;;;5026638;28;20467;-79
2022/08/17 09:53:12;;;;;;;7.13;5.63;;;22.90;99.90;;;;;;5026584;28;20478;-78
2022/08/17 09:55:57;;;;;;;8.03;6.10;;;22.90;99.90;;;;;;5025760;28;21080;-78
2022/08/17 09:58:36;;;;;;;9.60;6.17;;;22.80;99.90;;;;;;5026628;28;20508;-78
2022/08/17 10:01:15;;;;;;;12.70;6.30;;;22.80;99.90;;;;;;5026797;28;20454;-77
2022/08/17 10:04:04;;;;;;;11.37;6.70;;;22.80;99.90;;;;;;5027124;28;21215;-78
2022/08/17 10:06:41;;;;;;;8.90;6.70;;;22.90;99.90;;;;;;5022604;28;20454;-79
2022/08/17 10:09:14;;;;;;;15.73;7.07;;;22.90;99.90;;;;;;5025526;28;20858;-80
2022/08/17 10:14:37;;;;;;;8.00;6.60;;;23.10;99.90;;;;;;5011230;28;20835;-78
2022/08/17 10:17:15;;;;;;;7.37;6.50;;;23.20;99.90;;;;;;5025482;28;20462;-76
2022/08/17 10:19:53;;;;;;;6.87;6.17;;;23.30;99.90;;;;;;5023344;28;20470;-76
2022/08/17 10:28:05;;;;;;;7.35;6.60;;;23.40;99.90;;;;;;5025294;28;20495;-76
2022/08/17 10:30:36;;;;;;;7.43;6.73;;;23.40;99.90;;;;;;5024009;28;20683;-75
2022/08/17 10:33:06;;;;;;;10.63;7.50;;;23.30;99.90;;;;;;5026046;28;20497;-76
2022/08/17 10:35:38;;;;;;;11.10;8.00;;;23.30;99.90;;;;;;5024863;28;20539;-76
2022/08/17 10:38:44;;;;;;;10.30;7.03;;;23.40;99.90;;;;;;5023254;28;20453;-76
2022/08/17 10:41:23;;;;;;;13.07;7.80;;;23.40;99.90;;;;;;5024018;28;22183;-76
2022/08/17 10:43:58;;;;;;;14.20;8.00;;;23.30;99.90;;;;;;5025268;28;20448;-76
2022/08/17 10:46:32;;;;;;;9.90;7.43;;;23.40;99.90;;;;;;5026504;28;20456;-76
2022/08/17 10:49:23;;;;;;;11.53;7.73;;;23.40;99.90;;;;;;5026864;28;20446;-76
2022/08/17 10:51:53;;;;;;;10.13;6.60;;;23.50;99.90;;;;;;5025717;28;20469;-76
2022/08/17 10:54:45;;;;;;;9.60;6.67;;;23.60;99.90;;;;;;5025995;28;21545;-76
2022/08/17 10:57:35;;;;;;;8.53;6.50;;;23.70;99.90;;;;;;5026120;28;20544;-76
2022/08/17 11:00:07;;;;;;;11.40;7.10;;;23.90;99.90;;;;;;5025647;28;20450;-76
2022/08/17 11:02:44;;;;;;;9.03;6.90;;;24.00;99.90;;;;;;5025459;28;20486;-75
2022/08/17 11:05:40;;;;;;;7.43;6.50;;;24.10;99.90;;;;;;5022090;28;20461;-76
2022/08/17 11:08:34;;;;;;;9.43;7.33;;;24.20;99.90;;;;;;5026413;28;20504;-75
2022/08/17 11:11:18;;;;;;;7.70;6.60;;;24.30;99.90;;;;;;5025875;28;20462;-75
2022/08/17 11:13:55;;;;;;;14.43;6.37;;;24.40;99.90;;;;;;5026818;28;20477;-75
2022/08/17 11:16:40;;;;;;;9.83;7.30;;;24.40;99.90;;;;;;5022959;28;20485;-75
2022/08/17 11:19:33;;;;;;;7.63;5.70;;;24.50;99.90;;;;;;5025515;28;20453;-75
2022/08/17 11:22:56;;;;;;;10.40;7.20;;;24.60;99.90;;;;;;5022320;28;20469;-76
2022/08/17 11:25:37;;;;;;;9.27;6.77;;;24.70;99.90;;;;;;4986828;28;20912;-77
2022/08/17 11:28:17;;;;;;;8.70;7.10;;;24.80;99.90;;;;;;4987806;28;20719;-78
2022/08/17 11:30:47;;;;;;;13.67;6.40;;;25.00;99.90;;;;;;5019716;28;20515;-76
2022/08/17 11:33:48;;;;;;;6.50;5.80;;;24.90;99.90;;;;;;5028805;28;21025;-78
2022/08/17 11:36:22;;;;;;;7.00;5.73;;;25.00;99.90;;;;;;5028211;28;20834;-77
2022/08/17 11:38:56;;;;;;;9.20;6.60;;;25.00;99.90;;;;;;5029998;28;20461;-77
2022/08/17 11:41:29;;;;;;;7.80;6.40;;;25.10;99.90;;;;;;5029318;28;21071;-78
2022/08/17 11:44:09;;;;;;;8.13;5.38;;;25.00;99.90;;;;;;5026973;28;20454;-76
2022/08/17 11:52:41;;;;;;;10.63;5.60;;;24.80;99.90;;;;;;5025891;28;20500;-78
2022/08/17 11:55:11;;;;;;;13.40;6.30;;;24.70;99.90;;;;;;5027843;28;20481;-77
2022/08/17 11:58:25;;;;;;;7.43;6.63;;;24.60;99.90;;;;;;5028329;28;20457;-77
2022/08/17 12:00:58;;;;;;;7.70;6.80;;;24.60;99.90;;;;;;5021134;28;20966;-77
2022/08/17 12:03:44;;;;;;;10.00;6.40;;;24.80;99.90;;;;;;5026206;28;20450;-77
2022/08/17 12:06:34;;;;;;;8.07;5.18;;;25.30;99.90;;;;;;5024030;28;20446;-77
2022/08/17 12:09:07;;;;;;;6.20;5.43;;;26.00;99.90;;;;;;5023450;28;20261;-76
2022/08/17 12:11:41;;;;;;;9.10;5.97;;;26.60;99.90;;;;;;5026742;28;20892;-75
2022/08/17 12:14:10;;;;;;;9.90;5.17;;;27.20;99.90;;;;;;5027573;28;20453;-75
2022/08/17 12:16:39;;;;;;;5.50;5.00;;;27.70;99.90;;;;;;5027745;28;20489;-77
2022/08/17 12:19:16;;;;;;;6.03;4.50;;;28.00;99.90;;;;;;5026939;28;20970;-74
2022/08/17 12:21:49;;;;;;;14.50;4.40;;;28.30;99.90;;;;;;5027767;28;20538;-74
2022/08/17 12:24:31;;;;;;;9.90;5.10;;;28.70;99.90;;;;;;5027286;28;20457;-75
2022/08/17 12:26:59;;;;;;;5.23;4.73;;;28.60;99.90;;;;;;5028636;28;20526;-76
2022/08/17 12:29:27;;;;;;;6.33;4.73;;;28.60;99.90;;;;;;5026363;28;20600;-75
2022/08/17 12:31:57;;;;;;;9.70;4.27;;;28.60;99.90;;;;;;5025204;28;20481;-75
2022/08/17 12:34:26;;;;;;;6.00;4.53;;;28.60;99.90;;;;;;5028296;28;20841;-73
2022/08/17 12:36:58;;;;;;;5.13;3.70;;;28.70;99.90;;;;;;5027710;28;20581;-73
2022/08/17 12:39:26;;;;;;;5.18;3.85;;;28.60;99.90;;;;;;5026855;28;20489;-73
2022/08/17 12:41:56;;;;;;;8.88;4.50;;;28.60;99.90;;;;;;5027096;28;20273;-73
2022/08/17 12:44:25;;;;;;;4.63;4.20;;;28.70;99.90;;;;;;5026805;28;20209;-73
2022/08/17 12:46:59;;;;;;;5.97;4.50;;;29.00;99.90;;;;;;5026978;28;20476;-72
2022/08/17 12:49:30;;;;;;;4.80;4.20;;;29.30;99.90;;;;;;5030108;28;20485;-73
2022/08/17 12:52:12;;;;;;;6.20;4.27;;;29.40;99.90;;;;;;5017206;28;20567;-73
2022/08/17 12:54:52;;;;;;;4.50;4.10;;;29.50;99.90;;;;;;5026230;28;20511;-73
2022/08/17 12:57:22;;;;;;;6.82;4.72;;;29.70;99.90;;;;;;5017773;28;20472;-73
2022/08/17 12:59:52;;;;;;;6.00;3.97;;;29.90;99.90;;;;;;5023587;28;20220;-73
2022/08/17 13:02:28;;;;;;;4.73;4.40;;;30.10;99.90;;;;;;5027604;28;20772;-73
2022/08/17 13:04:56;;;;;;;9.80;4.60;;;30.00;99.90;;;;;;5025347;28;21013;-73
2022/08/17 13:07:28;;;;;;;4.73;4.10;;;30.00;99.90;;;;;;5026892;28;20461;-73
2022/08/17 13:09:55;;;;;;;5.30;4.80;;;29.80;99.90;;;;;;5025724;28;20527;-73
2022/08/17 13:12:31;;;;;;;9.17;4.10;;;29.90;99.90;;;;;;5024989;28;20527;-73
2022/08/17 13:14:58;;;;;;;7.10;4.43;;;29.60;99.90;;;;;;5024472;28;21023;-73
2022/08/17 13:17:28;;;;;;;5.20;4.63;;;29.50;99.90;;;;;;5024755;28;20470;-73
2022/08/17 13:19:55;;;;;;;6.93;4.00;;;29.40;99.90;;;;;;5024142;28;20445;-76
2022/08/17 13:22:23;;;;;;;4.63;4.32;;;29.30;99.90;;;;;;5022596;28;20477;-77
2022/08/17 13:24:53;;;;;;;6.17;4.30;;;29.30;99.90;;;;;;5025117;28;20202;-76
2022/08/17 13:27:22;;;;;;;8.20;4.77;;;29.20;99.90;;;;;;5026015;28;20462;-76
2022/08/17 13:29:52;;;;;;;6.60;4.60;;;29.10;99.90;;;;;;5026708;28;20453;-76
2022/08/17 13:32:21;;;;;;;7.10;4.80;;;28.90;99.90;;;;;;5027642;28;20520;-76
2022/08/17 13:34:52;;;;;;;5.37;4.87;;;29.00;99.90;;;;;;5026611;28;20508;-77
2022/08/17 13:37:25;;;;;;;5.50;4.80;;;29.20;99.90;;;;;;5026681;28;20520;-77